createdAt,value
2022-09-12T00:00:22.069Z,19.35
2022-09-12T00:02:48.703Z,18.77
2022-09-12T00:05:15.121Z,19.27
2022-09-12T00:07:41.628Z,17.58
2022-09-12T00:10:07.890Z,17.77
2022-09-12T00:12:34.357Z,17.27
2022-09-12T00:15:00.654Z,18.35
2022-09-12T00:17:27.037Z,17.75
2022-09-12T00:19:53.580Z,18.20
2022-09-12T00:22:19.824Z,16.98
2022-09-12T00:24:46.109Z,17.98
2022-09-12T00:27:12.486Z,17.27
2022-09-12T00:29:38.793Z,16.52
2022-09-12T00:32:05.099Z,17.80
2022-09-12T00:34:31.518Z,17.17
2022-09-12T00:36:57.836Z,16.30
2022-09-12T00:39:24.465Z,15.75
2022-09-12T00:41:50.745Z,16.05
2022-09-12T00:44:17.140Z,16.15
2022-09-12T00:46:43.508Z,17.08
2022-09-12T00:49:12.000Z,15.93
2022-09-12T00:51:38.448Z,15.13
2022-09-12T00:54:04.777Z,15.38
2022-09-12T00:56:31.122Z,15.75
2022-09-12T00:58:57.420Z,16.05
2022-09-12T01:01:23.809Z,14.75
2022-09-12T01:03:50.206Z,15.25
2022-09-12T01:06:17.005Z,14.40
2022-09-12T01:08:44.516Z,13.98
2022-09-12T01:11:10.873Z,14.93
2022-09-12T01:13:37.121Z,14.98
2022-09-12T01:16:03.488Z,14.82
2022-09-12T01:18:30.160Z,13.90
2022-09-12T01:20:56.573Z,14.48
2022-09-12T01:23:23.117Z,14.27
2022-09-12T01:25:49.681Z,15.32
2022-09-12T01:28:16.279Z,13.85
2022-09-12T01:30:42.598Z,13.85
2022-09-12T01:33:08.948Z,14.18
2022-09-12T01:35:35.306Z,13.65
2022-09-12T01:38:01.571Z,13.23
2022-09-12T01:40:28.015Z,14.80
2022-09-12T01:42:54.362Z,12.93
2022-09-12T01:45:21.034Z,12.23
2022-09-12T01:47:47.337Z,13.90
2022-09-12T01:50:13.696Z,12.95
2022-09-12T01:52:40.087Z,13.60
2022-09-12T01:55:09.562Z,13.50
2022-09-12T01:57:36.392Z,13.68
2022-09-12T02:00:02.760Z,12.65
2022-09-12T02:02:29.134Z,12.40
2022-09-12T02:04:55.523Z,12.48
2022-09-12T02:07:21.898Z,12.30
2022-09-12T02:09:48.220Z,12.05
2022-09-12T02:12:14.565Z,12.05
2022-09-12T02:14:41.107Z,12.13
2022-09-12T02:17:07.505Z,12.77
2022-09-12T02:19:33.945Z,12.30
2022-09-12T02:22:00.219Z,12.15
2022-09-12T02:24:26.597Z,12.15
2022-09-12T02:26:52.914Z,12.55
2022-09-12T02:29:19.438Z,11.77
2022-09-12T02:31:46.460Z,11.80
2022-09-12T02:34:12.752Z,12.02
2022-09-12T02:36:39.060Z,10.98
2022-09-12T02:39:05.499Z,11.18
2022-09-12T02:41:31.742Z,11.25
2022-09-12T02:43:58.079Z,11.30
2022-09-12T02:46:24.344Z,10.90
2022-09-12T02:48:50.650Z,10.88
2022-09-12T02:51:21.508Z,11.75
2022-09-12T02:53:49.734Z,10.93
2022-09-12T02:56:15.992Z,10.57
2022-09-12T02:58:42.289Z,10.80
2022-09-12T03:01:08.619Z,11.48
2022-09-12T03:03:35.051Z,10.25
2022-09-12T03:06:01.619Z,10.00
2022-09-12T03:08:27.905Z,10.00
2022-09-12T03:10:54.517Z,10.20
2022-09-12T03:13:20.839Z,10.88
2022-09-12T03:15:47.409Z,10.02
2022-09-12T03:18:13.865Z,10.27
2022-09-12T03:20:40.626Z,10.07
2022-09-12T03:23:06.888Z,10.55
2022-09-12T03:25:33.399Z,9.93
2022-09-12T03:27:59.791Z,10.02
2022-09-12T03:30:26.169Z,10.45
2022-09-12T03:32:52.754Z,10.32
2022-09-12T03:35:22.817Z,10.02
2022-09-12T03:37:49.520Z,10.00
2022-09-12T03:40:15.950Z,10.73
2022-09-12T03:42:42.209Z,9.52
2022-09-12T03:45:08.501Z,9.35
2022-09-12T03:47:34.788Z,9.02
2022-09-12T03:50:01.160Z,9.85
2022-09-12T03:52:27.790Z,8.77
2022-09-12T03:54:54.419Z,9.35
2022-09-12T03:57:20.849Z,9.30
2022-09-12T03:59:47.323Z,8.82
2022-09-12T04:02:13.613Z,8.82
2022-09-12T04:04:40.137Z,9.02
2022-09-12T04:07:06.518Z,9.15
2022-09-12T04:09:32.800Z,9.05
2022-09-12T04:11:59.122Z,9.38
2022-09-12T04:14:25.633Z,9.23
2022-09-12T04:16:52.001Z,8.45
2022-09-12T04:19:18.386Z,8.73
2022-09-12T04:21:44.635Z,8.85
2022-09-12T04:24:11.035Z,9.10
2022-09-12T04:26:37.396Z,8.70
2022-09-12T04:29:03.663Z,8.43
2022-09-12T04:31:30.216Z,8.52
2022-09-12T04:33:56.654Z,8.27
2022-09-12T04:36:22.960Z,8.65
2022-09-12T04:38:49.243Z,8.55
2022-09-12T04:41:15.789Z,9.30
2022-09-12T04:43:42.205Z,8.82
2022-09-12T04:46:08.576Z,8.45
2022-09-12T04:48:35.127Z,8.77
2022-09-12T04:51:01.485Z,9.30
2022-09-12T04:53:28.114Z,9.43
2022-09-12T04:55:54.504Z,8.38
2022-09-12T04:58:20.866Z,8.70
2022-09-12T05:00:47.246Z,8.88
2022-09-12T05:03:13.585Z,8.60
2022-09-12T05:05:39.890Z,8.50
2022-09-12T05:08:06.952Z,9.13
2022-09-12T05:10:33.435Z,8.75
2022-09-12T05:12:59.942Z,8.43
2022-09-12T05:15:26.441Z,8.63
2022-09-12T05:17:52.730Z,8.30
2022-09-12T05:20:19.018Z,7.95
2022-09-12T05:22:45.357Z,8.15
2022-09-12T05:25:11.862Z,8.98
2022-09-12T05:27:38.172Z,8.70
2022-09-12T05:30:04.617Z,8.52
2022-09-12T05:32:31.002Z,8.50
2022-09-12T05:34:57.438Z,9.30
2022-09-12T05:37:23.853Z,8.35
2022-09-12T05:39:50.239Z,8.48
2022-09-12T05:42:16.521Z,8.27
2022-09-12T05:44:42.853Z,8.45
2022-09-12T05:47:10.053Z,8.55
2022-09-12T05:49:36.999Z,8.48
2022-09-12T05:52:03.329Z,8.20
2022-09-12T05:54:31.661Z,8.20
2022-09-12T05:56:58.196Z,8.05
2022-09-12T05:59:24.559Z,8.95
2022-09-12T06:01:51.090Z,8.00
2022-09-12T06:04:17.372Z,8.38
2022-09-12T06:06:43.638Z,8.18
2022-09-12T06:09:10.141Z,8.50
2022-09-12T06:11:36.641Z,8.10
2022-09-12T06:14:02.985Z,8.18
2022-09-12T06:16:29.579Z,10.07
2022-09-12T06:18:55.949Z,9.25
2022-09-12T06:21:22.325Z,11.25
2022-09-12T06:23:48.794Z,9.55
2022-09-12T06:26:15.197Z,7.93
2022-09-12T06:28:41.578Z,8.02
2022-09-12T06:31:08.099Z,8.32
2022-09-12T06:33:34.390Z,9.48
2022-09-12T06:36:00.692Z,9.13
2022-09-12T06:38:27.023Z,8.50
2022-09-12T06:40:53.289Z,8.10
2022-09-12T06:43:19.598Z,8.27
2022-09-12T06:45:46.092Z,7.72
2022-09-12T06:48:12.703Z,8.60
2022-09-12T06:50:39.055Z,8.98
2022-09-12T06:53:05.396Z,10.57
2022-09-12T06:55:31.782Z,14.80
2022-09-12T06:57:58.094Z,19.92
2022-09-12T07:00:24.510Z,22.33
2022-09-12T07:02:51.101Z,21.92
2022-09-12T07:05:18.080Z,16.50
2022-09-12T07:07:44.633Z,20.45
2022-09-12T07:10:11.241Z,19.95
2022-09-12T07:12:37.534Z,17.67
2022-09-12T07:15:04.038Z,18.85
2022-09-12T07:17:30.730Z,18.63
2022-09-12T07:19:57.198Z,21.27
2022-09-12T07:22:23.709Z,18.95
2022-09-12T07:24:50.036Z,21.65
2022-09-12T07:27:16.635Z,18.85
2022-09-12T07:29:43.017Z,18.08
2022-09-12T07:32:09.478Z,20.08
2022-09-12T07:34:35.798Z,18.95
2022-09-12T07:37:02.099Z,16.85
2022-09-12T07:39:28.513Z,18.45
2022-09-12T07:41:54.829Z,18.55
2022-09-12T07:44:21.485Z,18.80
2022-09-12T07:46:47.822Z,15.73
2022-09-12T07:49:14.117Z,18.98
2022-09-12T07:51:40.766Z,17.77
2022-09-12T07:54:08.165Z,19.38
2022-09-12T07:56:38.717Z,18.25
2022-09-12T07:59:05.541Z,15.18
2022-09-12T08:01:31.864Z,17.27
2022-09-12T08:03:58.238Z,15.05
2022-09-12T08:06:24.726Z,17.92
2022-09-12T08:08:51.205Z,15.40
2022-09-12T08:11:17.486Z,12.55
2022-09-12T08:13:43.833Z,14.80
2022-09-12T08:16:10.687Z,15.63
2022-09-12T08:18:37.089Z,15.45
2022-09-12T08:21:03.496Z,15.43
2022-09-12T08:23:29.865Z,15.05
2022-09-12T08:25:56.253Z,20.17
2022-09-12T08:28:22.780Z,15.60
2022-09-12T08:30:49.248Z,15.40
2022-09-12T08:33:15.534Z,15.18
2022-09-12T08:35:41.873Z,15.45
2022-09-12T08:38:08.934Z,15.98
2022-09-12T08:40:35.618Z,14.60
2022-09-12T08:43:01.949Z,16.60
2022-09-12T08:45:28.249Z,17.13
2022-09-12T08:47:54.848Z,13.32
2022-09-12T08:50:21.194Z,15.93
2022-09-12T08:52:47.694Z,14.70
2022-09-12T08:55:14.057Z,13.88
2022-09-12T08:57:40.554Z,15.93
2022-09-12T09:00:06.976Z,16.80
2022-09-12T09:02:33.299Z,16.60
2022-09-12T09:04:59.661Z,15.63
2022-09-12T09:07:25.879Z,15.75
2022-09-12T09:09:52.691Z,14.88
2022-09-12T09:12:19.050Z,13.15
2022-09-12T09:14:45.473Z,14.10
2022-09-12T09:17:11.973Z,14.10
2022-09-12T09:19:38.294Z,13.40
2022-09-12T09:22:04.677Z,14.98
2022-09-12T09:24:31.025Z,13.80
2022-09-12T09:26:57.336Z,16.13
2022-09-12T09:29:23.613Z,13.43
2022-09-12T09:31:49.935Z,13.43
2022-09-12T09:34:16.276Z,15.30
2022-09-12T09:36:43.038Z,14.30
2022-09-12T09:39:09.377Z,12.77
2022-09-12T09:41:35.790Z,14.15
2022-09-12T09:44:02.149Z,13.65
2022-09-12T09:46:28.652Z,12.85
2022-09-12T09:48:55.024Z,14.40
2022-09-12T09:51:21.346Z,11.57
2022-09-12T09:53:47.621Z,13.98
2022-09-12T09:56:13.968Z,12.02
2022-09-12T09:58:40.347Z,11.43
2022-09-12T10:01:07.516Z,12.20
2022-09-12T10:03:33.802Z,11.13
2022-09-12T10:06:00.111Z,11.93
2022-09-12T10:08:26.546Z,12.40
2022-09-12T10:10:53.036Z,12.32
2022-09-12T10:13:19.416Z,11.02
2022-09-12T10:15:45.776Z,11.38
2022-09-12T10:18:12.238Z,12.07
2022-09-12T10:20:38.492Z,10.77
2022-09-12T10:23:05.006Z,12.15
2022-09-12T10:25:31.439Z,11.60
2022-09-12T10:27:57.720Z,10.25
2022-09-12T10:30:24.078Z,13.00
2022-09-12T10:32:50.422Z,12.10
2022-09-12T10:35:16.730Z,12.55
2022-09-12T10:37:43.103Z,11.63
2022-09-12T10:40:09.687Z,11.00
2022-09-12T10:42:36.077Z,13.38
2022-09-12T10:45:02.362Z,10.55
2022-09-12T10:47:28.694Z,14.98
2022-09-12T10:49:55.233Z,13.20
2022-09-12T10:52:21.525Z,9.75
2022-09-12T10:54:47.914Z,9.80
2022-09-12T10:57:14.898Z,9.90
2022-09-12T10:59:41.553Z,11.65
2022-09-12T11:02:07.900Z,9.10
2022-09-12T11:04:34.290Z,9.30
2022-09-12T11:07:00.585Z,10.23
2022-09-12T11:09:26.973Z,9.25
2022-09-12T11:11:53.682Z,9.75
2022-09-12T11:14:20.164Z,8.85
2022-09-12T11:16:46.609Z,10.73
2022-09-12T11:19:12.971Z,9.75
2022-09-12T11:21:39.462Z,9.02
2022-09-12T11:24:05.766Z,8.45
2022-09-12T11:26:32.140Z,9.57
2022-09-12T11:28:58.496Z,9.48
2022-09-12T11:31:24.935Z,8.88
2022-09-12T11:33:53.931Z,8.73
2022-09-12T11:36:23.005Z,8.90
2022-09-12T11:38:49.285Z,9.65
2022-09-12T11:41:15.705Z,8.90
2022-09-12T11:43:42.149Z,9.10
2022-09-12T11:46:08.732Z,8.85
2022-09-12T11:48:35.310Z,9.18
2022-09-12T11:51:01.746Z,8.10
2022-09-12T11:53:28.372Z,9.63
2022-09-12T11:55:54.727Z,9.35
2022-09-12T11:58:22.105Z,9.65
2022-09-12T12:00:48.361Z,8.77
2022-09-12T12:03:14.882Z,8.93
2022-09-12T12:05:41.275Z,9.30
2022-09-12T12:08:07.881Z,9.10
2022-09-12T12:10:34.326Z,9.88
2022-09-12T12:13:00.629Z,9.13
2022-09-12T12:15:26.998Z,8.63
2022-09-12T12:17:53.270Z,9.23
2022-09-12T12:20:19.593Z,9.82
2022-09-12T12:22:47.053Z,8.52
2022-09-12T12:25:14.763Z,8.80
2022-09-12T12:27:42.921Z,8.73
2022-09-12T12:30:09.442Z,8.52
2022-09-12T12:32:37.253Z,8.95
2022-09-12T12:35:03.594Z,8.38
2022-09-12T12:37:29.909Z,9.05
2022-09-12T12:39:56.342Z,8.63
2022-09-12T12:42:22.700Z,8.43
2022-09-12T12:44:48.952Z,8.15
2022-09-12T12:47:15.466Z,8.27
2022-09-12T12:49:41.814Z,8.52
2022-09-12T12:52:08.147Z,8.65
2022-09-12T12:54:34.538Z,8.88
2022-09-12T12:57:01.057Z,8.77
2022-09-12T12:59:27.913Z,8.05
2022-09-12T13:01:55.312Z,7.40
2022-09-12T13:04:22.108Z,8.10
2022-09-12T13:06:48.413Z,7.97
2022-09-12T13:09:14.709Z,7.68
2022-09-12T13:11:41.177Z,8.20
2022-09-12T13:14:07.524Z,8.18
2022-09-12T13:16:33.801Z,8.07
2022-09-12T13:19:00.218Z,8.15
2022-09-12T13:21:26.693Z,7.75
2022-09-12T13:23:53.217Z,8.25
2022-09-12T13:26:19.587Z,7.93
2022-09-12T13:28:46.090Z,7.60
2022-09-12T13:31:12.630Z,7.43
2022-09-12T13:33:39.027Z,8.60
2022-09-12T13:36:05.560Z,7.47
2022-09-12T13:38:32.862Z,7.65
2022-09-12T13:40:59.374Z,6.47
2022-09-12T13:43:26.262Z,7.30
2022-09-12T13:45:52.582Z,12.38
2022-09-12T13:48:18.966Z,9.48
2022-09-12T13:50:45.464Z,9.15
2022-09-12T13:53:12.050Z,14.73
2022-09-12T13:55:38.449Z,11.38
2022-09-12T13:58:04.793Z,10.80
2022-09-12T14:00:31.142Z,7.40
2022-09-12T14:02:57.625Z,10.05
2022-09-12T14:05:23.929Z,11.10
2022-09-12T14:07:50.622Z,7.72
2022-09-12T14:10:17.014Z,7.68
2022-09-12T14:12:43.518Z,12.65
2022-09-12T14:15:09.974Z,15.45
2022-09-12T14:17:36.543Z,12.98
2022-09-12T14:20:02.895Z,10.73
2022-09-12T14:22:29.285Z,11.00
2022-09-12T14:24:55.713Z,9.90
2022-09-12T14:27:22.238Z,12.00
2022-09-12T14:29:48.521Z,8.88
2022-09-12T14:32:14.830Z,270.17
2022-09-12T14:34:41.168Z,353.88
2022-09-12T14:37:08.464Z,243.85
2022-09-12T14:39:35.027Z,186.88
2022-09-12T14:42:01.551Z,149.30
2022-09-12T14:44:28.105Z,119.10
2022-09-12T14:46:54.473Z,104.68
2022-09-12T14:49:20.769Z,100.43
2022-09-12T14:51:51.118Z,90.50
2022-09-12T14:54:18.145Z,83.47
2022-09-12T14:56:45.860Z,71.95
2022-09-12T14:59:12.227Z,110.43
2022-09-12T15:01:38.819Z,128.85
2022-09-12T15:04:05.260Z,64.70
2022-09-12T15:06:31.545Z,53.35
2022-09-12T15:08:58.063Z,89.13
2022-09-12T15:11:24.673Z,76.75
2022-09-12T15:13:51.101Z,57.38
2022-09-12T15:16:17.732Z,49.47
2022-09-12T15:18:44.160Z,41.45
2022-09-12T15:21:10.686Z,33.78
2022-09-12T15:23:37.059Z,26.02
2022-09-12T15:26:03.605Z,21.33
2022-09-12T15:28:30.653Z,134.10
2022-09-12T15:30:57.061Z,201.68
2022-09-12T15:33:23.410Z,221.93
2022-09-12T15:35:50.112Z,198.38
2022-09-12T15:38:16.726Z,171.68
2022-09-12T15:40:43.293Z,160.00
2022-09-12T15:43:09.704Z,154.80
2022-09-12T15:45:36.266Z,149.32
2022-09-12T15:48:02.657Z,141.63
2022-09-12T15:50:28.960Z,142.60
2022-09-12T15:52:55.412Z,137.18
2022-09-12T15:55:21.673Z,130.10
2022-09-12T15:57:48.006Z,132.70
2022-09-12T16:00:14.320Z,133.20
2022-09-12T16:02:40.747Z,128.35
2022-09-12T16:05:07.063Z,124.95
2022-09-12T16:07:33.514Z,124.30
2022-09-12T16:09:59.796Z,122.07
2022-09-12T16:12:26.072Z,119.72
2022-09-12T16:14:52.677Z,120.10
2022-09-12T16:17:18.984Z,120.75
2022-09-12T16:19:45.525Z,119.13
2022-09-12T16:22:11.860Z,116.80
2022-09-12T16:24:38.178Z,112.22
2022-09-12T16:27:04.719Z,110.68
2022-09-12T16:29:31.060Z,109.30
2022-09-12T16:31:57.490Z,109.40
2022-09-12T16:34:24.039Z,109.10
2022-09-12T16:36:50.417Z,104.63
2022-09-12T16:39:16.753Z,105.38
2022-09-12T16:41:43.890Z,106.90
2022-09-12T16:44:10.451Z,102.68
2022-09-12T16:46:36.889Z,101.68
2022-09-12T16:49:03.226Z,98.53
2022-09-12T16:51:29.581Z,100.03
2022-09-12T16:53:55.913Z,97.93
2022-09-12T16:56:22.261Z,97.47
2022-09-12T16:58:48.880Z,97.18
2022-09-12T17:01:15.671Z,97.57
2022-09-12T17:03:42.047Z,96.05
2022-09-12T17:06:08.744Z,94.55
2022-09-12T17:08:35.133Z,92.13
2022-09-12T17:11:01.404Z,91.30
2022-09-12T17:13:41.312Z,91.07
2022-09-12T17:16:14.496Z,88.55
2022-09-12T17:18:40.933Z,84.65
2022-09-12T17:21:07.369Z,88.50
2022-09-12T17:23:33.797Z,85.88
2022-09-12T17:26:00.237Z,85.80
2022-09-12T17:28:26.689Z,84.63
2022-09-12T17:30:53.012Z,85.07
2022-09-12T17:33:19.621Z,79.57
2022-09-12T17:35:45.883Z,80.13
2022-09-12T17:38:15.487Z,78.68
2022-09-12T17:40:59.010Z,79.57
2022-09-12T17:43:26.810Z,76.90
2022-09-12T17:45:53.158Z,76.55
2022-09-12T17:48:19.602Z,76.43
2022-09-12T17:50:45.922Z,72.38
2022-09-12T17:53:12.553Z,74.68
2022-09-12T17:55:38.902Z,71.47
2022-09-12T17:58:05.223Z,73.18
2022-09-12T18:00:31.524Z,70.97
2022-09-12T18:02:57.888Z,68.25
2022-09-12T18:05:24.458Z,66.68
2022-09-12T18:07:51.222Z,65.10
2022-09-12T18:10:17.692Z,68.15
2022-09-12T18:12:44.072Z,64.90
2022-09-12T18:15:10.418Z,61.58
2022-09-12T18:17:36.669Z,257.30
2022-09-12T18:20:02.980Z,353.75
2022-09-12T18:22:29.529Z,338.98
2022-09-12T18:24:55.881Z,291.90
2022-09-12T18:27:22.223Z,267.60
2022-09-12T18:30:04.222Z,255.45
2022-09-12T18:32:35.194Z,240.55
2022-09-12T18:35:01.785Z,236.63
2022-09-12T18:37:28.165Z,229.43
2022-09-12T18:39:54.535Z,221.02
2022-09-12T18:42:20.848Z,218.63
2022-09-12T18:44:47.165Z,219.05
2022-09-12T18:47:13.621Z,210.18
2022-09-12T18:49:40.146Z,208.20
2022-09-12T18:52:06.445Z,204.30
2022-09-12T18:54:32.903Z,458.08
2022-09-12T18:56:59.218Z,468.58
2022-09-12T18:59:25.701Z,425.33
2022-09-12T19:01:52.027Z,395.48
2022-09-12T19:04:18.366Z,389.67
2022-09-12T19:06:44.739Z,373.85
2022-09-12T19:09:11.406Z,365.67
2022-09-12T19:11:37.762Z,358.85
2022-09-12T19:14:04.193Z,355.55
2022-09-12T19:16:30.705Z,348.73
2022-09-12T19:18:57.000Z,338.58
2022-09-12T19:21:23.466Z,333.52
2022-09-12T19:23:50.125Z,326.63
2022-09-12T19:26:16.558Z,331.92
2022-09-12T19:28:42.989Z,323.30
2022-09-12T19:31:09.493Z,460.15
2022-09-12T19:33:36.228Z,555.38
2022-09-12T19:36:02.608Z,510.50
2022-09-12T19:38:28.853Z,496.55
2022-09-12T19:40:55.328Z,469.63
2022-09-12T19:43:21.678Z,463.88
2022-09-12T19:45:47.901Z,453.60
2022-09-12T19:48:14.234Z,621.17
2022-09-12T19:50:40.744Z,629.13
2022-09-12T19:53:07.113Z,580.92
2022-09-12T19:55:33.390Z,555.17
2022-09-12T19:57:59.735Z,541.35
2022-09-12T20:00:26.349Z,518.03
2022-09-12T20:02:52.650Z,511.95
2022-09-12T20:05:18.966Z,500.52
2022-09-12T20:07:45.401Z,503.40
2022-09-12T20:10:11.692Z,496.33
2022-09-12T20:12:38.908Z,562.60
2022-09-12T20:15:05.517Z,532.58
2022-09-12T20:17:31.925Z,535.25
2022-09-12T20:19:59.037Z,535.03
2022-09-12T20:22:25.444Z,538.13
2022-09-12T20:24:51.831Z,588.75
2022-09-12T20:27:18.174Z,604.08
2022-09-12T20:29:44.492Z,613.97
2022-09-12T20:32:10.801Z,576.50
2022-09-12T20:34:37.136Z,583.42
2022-09-12T20:37:03.506Z,579.25
2022-09-12T20:39:29.938Z,573.75
2022-09-12T20:41:56.285Z,570.15
2022-09-12T20:44:22.676Z,561.33
2022-09-12T20:46:49.256Z,563.85
2022-09-12T20:49:15.729Z,611.70
2022-09-12T20:51:42.026Z,687.58
2022-09-12T20:54:08.437Z,678.88
2022-09-12T20:56:34.794Z,642.72
2022-09-12T20:59:01.364Z,633.90
2022-09-12T21:01:27.667Z,617.88
2022-09-12T21:03:54.278Z,609.25
2022-09-12T21:06:20.786Z,613.47
2022-09-12T21:08:47.218Z,603.78
2022-09-12T21:11:14.136Z,604.92
2022-09-12T21:13:40.491Z,600.53
2022-09-12T21:16:06.951Z,588.70
2022-09-12T21:18:33.260Z,591.17
2022-09-12T21:21:00.032Z,574.50
2022-09-12T21:23:26.648Z,571.97
2022-09-12T21:25:53.002Z,565.83
2022-09-12T21:28:19.359Z,559.95
2022-09-12T21:30:46.191Z,565.78
2022-09-12T21:33:12.689Z,652.03
2022-09-12T21:35:39.041Z,706.33
2022-09-12T21:38:05.357Z,703.97
2022-09-12T21:40:31.968Z,659.97
2022-09-12T21:42:58.829Z,650.97
2022-09-12T21:45:25.115Z,639.70
2022-09-12T21:47:51.479Z,613.53
2022-09-12T21:50:17.877Z,613.80
2022-09-12T21:52:44.398Z,624.90
2022-09-12T21:55:11.215Z,741.40
2022-09-12T21:57:38.164Z,764.33
2022-09-12T22:00:04.654Z,714.40
2022-09-12T22:02:33.731Z,698.70
2022-09-12T22:05:00.081Z,684.67
2022-09-12T22:07:27.436Z,678.53
2022-09-12T22:09:53.851Z,669.22
2022-09-12T22:12:20.366Z,686.05
2022-09-12T22:14:46.724Z,826.45
2022-09-12T22:17:13.125Z,820.10
2022-09-12T22:19:39.596Z,771.50
2022-09-12T22:22:05.920Z,747.90
2022-09-12T22:24:32.526Z,741.35
2022-09-12T22:26:58.854Z,730.97
2022-09-12T22:29:25.112Z,724.72
2022-09-12T22:31:52.035Z,720.92
2022-09-12T22:34:18.358Z,710.53
2022-09-12T22:36:44.634Z,706.08
2022-09-12T22:39:11.144Z,697.78
2022-09-12T22:41:37.689Z,702.92
2022-09-12T22:44:03.938Z,691.97
2022-09-12T22:46:30.268Z,755.95
2022-09-12T22:48:56.651Z,834.47
2022-09-12T22:51:23.018Z,802.15
2022-09-12T22:53:49.401Z,791.20
2022-09-12T22:56:15.797Z,777.97
2022-09-12T22:58:42.157Z,772.60
2022-09-12T23:01:08.650Z,794.17
2022-09-12T23:03:35.065Z,760.13
2022-09-12T23:06:01.431Z,583.67
2022-09-12T23:08:27.742Z,384.17
2022-09-12T23:10:54.037Z,675.92
2022-09-12T23:13:20.442Z,714.58
2022-09-12T23:15:46.939Z,740.53
2022-09-12T23:18:14.447Z,713.90
2022-09-12T23:20:41.205Z,688.03
2022-09-12T23:23:07.538Z,667.35
2022-09-12T23:25:33.930Z,645.08
2022-09-12T23:28:00.367Z,635.15
2022-09-12T23:30:26.734Z,619.30
2022-09-12T23:32:53.017Z,606.20
2022-09-12T23:35:19.518Z,602.38
2022-09-12T23:37:45.850Z,590.58
2022-09-12T23:40:12.247Z,590.50
2022-09-12T23:42:38.774Z,586.95
2022-09-12T23:45:05.153Z,578.03
2022-09-12T23:47:31.492Z,573.80
2022-09-12T23:49:57.987Z,571.28
2022-09-12T23:52:24.313Z,562.53
2022-09-12T23:54:50.683Z,561.13
2022-09-12T23:57:17.069Z,564.97
2022-09-12T23:59:43.350Z,559.60
